Time;durP1;ratioP1;P1;durP2;ratioP2;P2;SDS_P1;SDS_P2;PMS_P1;PMS_P2;Temp;Humidity;BMP_temperature;BMP_pressure;BME280_temperature;BME280_humidity;BME280_pressure;Samples;Min_cycle;Max_cycle;Signal;HPM_P1;HPM_P2
2021/12/19 00:00:33;;;;;;;30.33;17.38;;;3.20;99.90;;;;;;5084531;28;20028;-82
2021/12/19 00:03:07;;;;;;;30.45;17.65;;;3.20;99.90;;;;;;5095842;28;20432;-81
2021/12/19 00:10:59;;;;;;;34.20;18.02;;;3.30;99.90;;;;;;5093710;28;20501;-82
2021/12/19 00:13:27;;;;;;;33.38;19.25;;;3.30;99.90;;;;;;5091666;28;20036;-85
2021/12/19 00:15:54;;;;;;;30.20;18.95;;;3.20;99.90;;;;;;5081143;28;20105;-83
2021/12/19 00:18:20;;;;;;;30.23;21.23;;;3.20;99.90;;;;;;5088709;28;20574;-80
2021/12/19 00:20:46;;;;;;;35.85;20.90;;;3.20;99.90;;;;;;5092951;28;20020;-86
2021/12/19 00:23:12;;;;;;;32.55;21.15;;;3.20;99.90;;;;;;5090959;28;20038;-88
2021/12/19 00:25:38;;;;;;;34.75;20.95;;;3.20;99.90;;;;;;5094829;28;20016;-82
2021/12/19 00:28:05;;;;;;;35.45;21.50;;;3.20;99.90;;;;;;5093863;28;20043;-85
2021/12/19 00:30:31;;;;;;;43.78;24.98;;;3.20;99.90;;;;;;5094870;28;20391;-80
2021/12/19 00:32:57;;;;;;;46.42;26.67;;;3.20;99.90;;;;;;5085719;28;20035;-82
2021/12/19 00:35:24;;;;;;;34.40;21.33;;;3.20;99.90;;;;;;5090855;28;20020;-81
2021/12/19 00:37:50;;;;;;;33.92;20.13;;;3.10;99.90;;;;;;5079902;28;20088;-85
2021/12/19 00:40:17;;;;;;;32.85;20.67;;;3.10;99.90;;;;;;5095277;28;20388;-84
2021/12/19 00:42:43;;;;;;;33.78;20.48;;;3.20;99.90;;;;;;5092161;28;20040;-77
2021/12/19 00:45:28;;;;;;;33.95;20.38;;;3.20;99.90;;;;;;5086238;28;20042;-77
2021/12/19 00:47:54;;;;;;;37.97;21.15;;;3.20;99.90;;;;;;5085681;28;20123;-77
2021/12/19 00:50:20;;;;;;;32.92;19.52;;;3.20;99.90;;;;;;5085230;28;20115;-77
2021/12/19 00:52:46;;;;;;;34.50;20.00;;;3.20;99.90;;;;;;5089881;28;20085;-76
2021/12/19 00:55:14;;;;;;;31.95;19.65;;;3.20;99.90;;;;;;5092717;28;20028;-77
2021/12/19 00:57:39;;;;;;;32.72;20.25;;;3.20;99.90;;;;;;5090720;28;20027;-76
2021/12/19 01:00:09;;;;;;;30.70;19.98;;;3.10;99.90;;;;;;5088935;28;20032;-76
2021/12/19 01:02:35;;;;;;;33.40;20.13;;;3.10;99.90;;;;;;5087526;28;20463;-76
2021/12/19 01:05:03;;;;;;;34.70;20.38;;;3.10;99.90;;;;;;5090534;28;20031;-76
2021/12/19 01:07:29;;;;;;;30.90;18.70;;;3.10;99.90;;;;;;5091197;28;20017;-76
2021/12/19 01:09:54;;;;;;;32.22;17.48;;;3.10;99.90;;;;;;5086768;28;20035;-76
2021/12/19 01:12:20;;;;;;;30.25;19.33;;;3.10;99.90;;;;;;5089688;28;20028;-76
2021/12/19 01:14:46;;;;;;;32.00;17.63;;;3.10;99.90;;;;;;5087397;28;20386;-76
2021/12/19 01:17:12;;;;;;;26.30;17.73;;;3.10;99.90;;;;;;5092159;28;20020;-76
2021/12/19 01:19:38;;;;;;;27.30;18.02;;;3.10;99.90;;;;;;5092733;28;20543;-76
2021/12/19 01:22:04;;;;;;;30.25;19.08;;;3.10;99.90;;;;;;5091458;28;20016;-76
2021/12/19 01:24:30;;;;;;;28.77;19.25;;;3.10;99.90;;;;;;5088422;28;20037;-77
2021/12/19 01:26:56;;;;;;;30.67;19.25;;;3.10;99.90;;;;;;5091735;28;20027;-76
2021/12/19 01:29:21;;;;;;;35.17;21.25;;;3.10;99.90;;;;;;5089350;28;20453;-77
2021/12/19 01:31:47;;;;;;;37.25;20.10;;;3.10;99.90;;;;;;5091472;28;20119;-76
2021/12/19 01:34:13;;;;;;;34.85;20.88;;;3.10;99.90;;;;;;5089809;28;20035;-76
2021/12/19 01:36:43;;;;;;;32.28;20.83;;;3.20;99.90;;;;;;5091949;28;20493;-77
2021/12/19 01:39:10;;;;;;;34.05;21.30;;;3.10;99.90;;;;;;5084288;28;20676;-77
2021/12/19 01:41:45;;;;;;;30.42;19.83;;;3.10;99.90;;;;;;5090855;28;20044;-76
2021/12/19 01:44:11;;;;;;;33.45;21.00;;;3.10;99.90;;;;;;5087595;28;20036;-77
2021/12/19 01:46:37;;;;;;;31.75;20.20;;;3.10;99.90;;;;;;5087434;28;20077;-76
2021/12/19 01:49:03;;;;;;;36.30;20.83;;;3.10;99.90;;;;;;5090957;28;20063;-75
2021/12/19 01:51:29;;;;;;;34.80;20.15;;;3.10;99.90;;;;;;5091512;28;20036;-77
2021/12/19 01:53:55;;;;;;;34.88;20.27;;;3.10;99.90;;;;;;5085017;28;20111;-77
2021/12/19 01:56:21;;;;;;;32.88;20.42;;;3.10;99.90;;;;;;5087636;28;20127;-76
2021/12/19 01:58:47;;;;;;;35.10;22.45;;;3.10;99.90;;;;;;5091269;28;20035;-77
2021/12/19 02:01:13;;;;;;;33.55;21.60;;;3.00;99.90;;;;;;5089496;28;20030;-77
2021/12/19 02:03:39;;;;;;;35.22;22.13;;;3.00;99.90;;;;;;5092000;28;20032;-76
2021/12/19 02:06:05;;;;;;;34.17;22.60;;;3.00;99.90;;;;;;5085908;28;20029;-76
2021/12/19 02:08:31;;;;;;;37.50;23.55;;;3.00;99.90;;;;;;5090296;28;20041;-76
2021/12/19 02:10:56;;;;;;;38.45;24.35;;;3.00;99.90;;;;;;5083288;28;20073;-77
2021/12/19 02:13:22;;;;;;;43.97;23.35;;;3.00;99.90;;;;;;5089558;28;20043;-76
2021/12/19 02:15:48;;;;;;;37.08;23.02;;;2.90;99.90;;;;;;5086831;28;20440;-76
2021/12/19 02:18:18;;;;;;;37.70;23.08;;;2.90;99.90;;;;;;5091186;28;20039;-77
2021/12/19 02:20:51;;;;;;;41.88;23.85;;;2.90;99.90;;;;;;5091147;28;20016;-76
2021/12/19 02:23:20;;;;;;;39.63;23.60;;;3.00;99.90;;;;;;5083493;28;20028;-76
2021/12/19 02:25:46;;;;;;;37.78;23.83;;;3.00;99.90;;;;;;5081521;28;20032;-76
2021/12/19 02:28:12;;;;;;;39.33;22.63;;;3.00;99.90;;;;;;5083886;28;20047;-76
2021/12/19 02:30:38;;;;;;;36.40;23.38;;;3.00;99.90;;;;;;5086688;28;20081;-75
2021/12/19 02:33:11;;;;;;;35.00;23.55;;;3.00;99.90;;;;;;5090239;28;20032;-76
2021/12/19 02:35:38;;;;;;;36.65;22.60;;;3.00;99.90;;;;;;5090669;28;20024;-76
2021/12/19 02:48:29;;;;;;;36.40;21.85;;;3.40;99.90;;;;;;5083294;28;20478;-76
2021/12/19 02:50:56;;;;;;;34.40;21.83;;;3.50;99.90;;;;;;5082312;28;20166;-76
2021/12/19 02:53:36;;;;;;;36.53;21.60;;;3.60;99.90;;;;;;5089084;28;20032;-77
2021/12/19 02:56:04;;;;;;;36.55;22.15;;;3.70;99.90;;;;;;5088874;28;20119;-76
2021/12/19 02:58:31;;;;;;;37.38;23.00;;;3.80;99.90;;;;;;5083360;28;20033;-76
2021/12/19 03:01:00;;;;;;;38.45;23.08;;;3.90;99.90;;;;;;5084623;28;20028;-76
2021/12/19 03:03:25;;;;;;;39.50;22.15;;;3.90;99.90;;;;;;5088381;28;20035;-77
2021/12/19 03:05:51;;;;;;;37.05;22.08;;;3.90;99.90;;;;;;5084248;28;20176;-76
2021/12/19 03:08:17;;;;;;;37.42;22.83;;;3.90;99.90;;;;;;5089263;28;20032;-76
2021/12/19 03:19:00;;;;;;;43.50;23.30;;;4.00;99.90;;;;;;5086583;28;20509;-77
2021/12/19 03:21:26;;;;;;;46.00;25.27;;;4.10;99.90;;;;;;5083533;28;20049;-77
2021/12/19 03:23:52;;;;;;;40.65;23.58;;;4.20;99.90;;;;;;5089202;28;20028;-76
2021/12/19 03:26:18;;;;;;;45.90;21.70;;;4.20;99.90;;;;;;5088322;28;20020;-76
2021/12/19 03:28:44;;;;;;;36.55;22.60;;;4.20;99.90;;;;;;5084302;28;20028;-76
2021/12/19 03:31:10;;;;;;;37.90;23.70;;;4.20;99.90;;;;;;5085461;28;20048;-77
2021/12/19 03:33:37;;;;;;;37.28;23.00;;;4.10;99.90;;;;;;5086499;28;20067;-76
2021/12/19 03:36:05;;;;;;;37.38;23.10;;;4.00;99.90;;;;;;5089738;28;20101;-76
2021/12/19 03:38:33;;;;;;;36.90;23.23;;;4.00;99.90;;;;;;5089960;28;20399;-76
2021/12/19 03:43:43;;;;;;;42.88;24.08;;;3.80;99.90;;;;;;5085832;28;20097;-79
2021/12/19 03:46:08;;;;;;;40.03;25.08;;;3.80;99.90;;;;;;5087210;28;20024;-76
2021/12/19 03:48:34;;;;;;;41.92;25.38;;;3.70;99.90;;;;;;5088251;28;20086;-77
2021/12/19 03:51:00;;;;;;;40.75;25.52;;;3.70;99.90;;;;;;5086057;28;20032;-76
2021/12/19 03:53:26;;;;;;;40.05;26.10;;;3.70;99.90;;;;;;5089931;28;20586;-76
2021/12/19 03:55:52;;;;;;;41.30;26.25;;;3.60;99.90;;;;;;5084551;28;20173;-76
2021/12/19 03:58:19;;;;;;;47.58;25.70;;;3.60;99.90;;;;;;5088002;28;20487;-75
2021/12/19 04:00:45;;;;;;;45.03;27.35;;;3.70;99.90;;;;;;5079576;28;20115;-76
2021/12/19 04:03:17;;;;;;;45.22;26.77;;;3.70;99.90;;;;;;5090166;28;20032;-77
2021/12/19 04:05:43;;;;;;;43.88;26.38;;;3.80;99.90;;;;;;5086101;28;20035;-77
2021/12/19 04:08:10;;;;;;;44.63;26.58;;;3.80;99.90;;;;;;5090034;28;20032;-77
2021/12/19 04:10:35;;;;;;;43.92;26.83;;;3.80;99.90;;;;;;5087180;28;20043;-76
2021/12/19 04:13:02;;;;;;;46.28;26.98;;;3.80;99.90;;;;;;5094028;28;20403;-76
2021/12/19 04:15:28;;;;;;;39.10;26.08;;;3.80;99.90;;;;;;5085262;28;20493;-76
2021/12/19 04:17:54;;;;;;;46.55;29.02;;;3.80;99.90;;;;;;5094101;28;20035;-77
2021/12/19 04:20:20;;;;;;;50.45;27.40;;;3.90;99.90;;;;;;5087546;28;20020;-77
2021/12/19 04:22:47;;;;;;;51.65;28.80;;;3.80;99.90;;;;;;5092756;28;20043;-77
2021/12/19 04:25:14;;;;;;;45.22;28.02;;;3.80;99.90;;;;;;5086203;28;20024;-77
2021/12/19 04:27:40;;;;;;;44.92;28.75;;;3.70;99.90;;;;;;5082692;28;20055;-78
2021/12/19 04:30:08;;;;;;;45.65;28.23;;;3.70;99.90;;;;;;5089029;28;20111;-78
2021/12/19 04:32:39;;;;;;;58.95;31.02;;;3.70;99.90;;;;;;5093679;28;20016;-77
2021/12/19 04:35:06;;;;;;;56.78;30.60;;;3.60;99.90;;;;;;5087583;28;20023;-77
2021/12/19 05:01:57;;;;;;;54.55;30.48;;;3.20;99.90;;;;;;5090673;28;20028;-77
2021/12/19 05:14:35;;;;;;;65.40;34.67;;;2.90;99.90;;;;;;5090145;28;20034;-77
2021/12/19 05:17:06;;;;;;;53.47;32.08;;;2.80;99.90;;;;;;5090113;28;20462;-78
2021/12/19 05:19:44;;;;;;;60.80;33.55;;;2.90;99.90;;;;;;5084868;28;20029;-78
2021/12/19 05:22:10;;;;;;;52.17;31.88;;;2.90;99.90;;;;;;5089715;28;20614;-78
2021/12/19 05:27:03;;;;;;;55.65;34.13;;;2.80;99.90;;;;;;5083128;28;20020;-78
2021/12/19 05:29:31;;;;;;;59.67;35.42;;;2.80;99.90;;;;;;5083303;28;20037;-77
2021/12/19 05:31:57;;;;;;;53.15;33.00;;;2.80;99.90;;;;;;5086239;28;20047;-78
2021/12/19 05:34:23;;;;;;;56.50;31.90;;;2.70;99.90;;;;;;5085574;28;20573;-77
2021/12/19 05:47:30;;;;;;;55.67;34.85;;;2.70;99.90;;;;;;5086464;28;20043;-77
2021/12/19 05:49:56;;;;;;;60.08;34.42;;;2.60;99.90;;;;;;5079992;28;20040;-77
2021/12/19 05:52:22;;;;;;;54.65;33.17;;;2.50;99.90;;;;;;5088799;28;20032;-78
2021/12/19 05:54:48;;;;;;;61.47;36.13;;;2.50;99.90;;;;;;5084863;28;20088;-77
2021/12/19 05:57:15;;;;;;;54.22;34.35;;;2.50;99.90;;;;;;5087857;28;20457;-77
2021/12/19 05:59:40;;;;;;;51.92;33.10;;;2.50;99.90;;;;;;5090803;28;20074;-77
2021/12/19 06:02:06;;;;;;;57.05;31.48;;;2.50;99.90;;;;;;5091356;28;20486;-78
2021/12/19 06:04:32;;;;;;;54.05;30.65;;;2.40;99.90;;;;;;5082540;28;20051;-78
2021/12/19 06:06:58;;;;;;;50.72;31.38;;;2.40;99.90;;;;;;5085460;28;20055;-78
2021/12/19 06:09:24;;;;;;;49.80;29.83;;;2.40;99.90;;;;;;5085137;28;20615;-78
2021/12/19 06:11:50;;;;;;;51.47;30.60;;;2.40;99.90;;;;;;5089280;28;20028;-78
2021/12/19 06:14:15;;;;;;;49.92;30.73;;;2.40;99.90;;;;;;5086584;28;20031;-78
2021/12/19 06:16:41;;;;;;;48.75;29.48;;;2.40;99.90;;;;;;5090581;28;20020;-78
2021/12/19 06:19:07;;;;;;;50.90;29.27;;;2.40;99.90;;;;;;5089321;28;20032;-78
2021/12/19 06:21:32;;;;;;;43.13;28.77;;;2.40;99.90;;;;;;5089833;28;20024;-78
2021/12/19 06:23:58;;;;;;;58.50;31.95;;;2.40;99.90;;;;;;5090966;28;20070;-79
2021/12/19 06:26:24;;;;;;;53.35;30.75;;;2.50;99.90;;;;;;5087121;28;20031;-77
2021/12/19 06:28:49;;;;;;;50.03;29.92;;;2.50;99.90;;;;;;5091230;28;20398;-78
2021/12/19 06:31:17;;;;;;;45.65;28.67;;;2.50;99.90;;;;;;5089516;28;20032;-80
2021/12/19 06:33:42;;;;;;;50.97;29.40;;;2.50;99.90;;;;;;5091355;28;20103;-80
2021/12/19 06:36:09;;;;;;;54.65;31.25;;;2.50;99.90;;;;;;5091266;28;20111;-76
2021/12/19 06:38:35;;;;;;;65.07;37.40;;;2.50;99.90;;;;;;5091440;28;20459;-78
2021/12/19 06:41:01;;;;;;;69.18;38.85;;;2.50;99.90;;;;;;5088133;28;20100;-79
2021/12/19 06:43:30;;;;;;;56.17;34.72;;;2.50;99.90;;;;;;5085866;28;20059;-79
2021/12/19 06:45:56;;;;;;;48.70;30.02;;;2.50;99.90;;;;;;5087290;28;20400;-78
2021/12/19 06:48:24;;;;;;;44.00;28.33;;;2.50;99.90;;;;;;5089616;28;20077;-79
2021/12/19 06:50:51;;;;;;;47.28;29.80;;;2.60;99.90;;;;;;5090185;28;20440;-79
2021/12/19 06:53:16;;;;;;;46.97;28.40;;;2.70;99.90;;;;;;5090436;28;20040;-79
2021/12/19 06:55:43;;;;;;;39.25;26.10;;;2.80;99.90;;;;;;5090132;28;20031;-79
2021/12/19 06:58:09;;;;;;;38.63;24.48;;;2.80;99.90;;;;;;5090494;28;20536;-78
2021/12/19 07:00:35;;;;;;;41.28;23.42;;;2.90;99.90;;;;;;5086605;28;20024;-78
2021/12/19 07:03:01;;;;;;;34.38;23.13;;;3.00;99.90;;;;;;5088943;28;20389;-78
2021/12/19 07:05:27;;;;;;;36.88;23.67;;;3.10;99.90;;;;;;5086174;28;20099;-79
2021/12/19 07:07:52;;;;;;;39.05;25.00;;;3.20;99.90;;;;;;5088121;28;20067;-78
2021/12/19 07:10:18;;;;;;;37.13;24.35;;;3.30;99.90;;;;;;5088208;28;20032;-78
2021/12/19 07:12:44;;;;;;;36.95;23.98;;;3.30;99.90;;;;;;5090972;28;20020;-78
2021/12/19 07:15:10;;;;;;;36.08;22.38;;;3.30;99.90;;;;;;5090397;28;20035;-80
2021/12/19 07:17:36;;;;;;;29.88;20.63;;;3.30;99.90;;;;;;5089304;28;20073;-79
2021/12/19 07:20:03;;;;;;;29.20;20.95;;;3.30;99.90;;;;;;5090450;28;20020;-78
2021/12/19 07:22:28;;;;;;;38.80;22.00;;;3.30;99.90;;;;;;5090103;28;20023;-80
2021/12/19 07:24:54;;;;;;;38.28;21.60;;;3.40;99.90;;;;;;5088005;28;20028;-79
2021/12/19 07:27:20;;;;;;;35.65;22.25;;;3.40;99.90;;;;;;5083935;28;20025;-79
2021/12/19 07:29:47;;;;;;;35.88;23.33;;;3.50;99.90;;;;;;5088565;28;20109;-80
2021/12/19 07:32:13;;;;;;;40.92;23.60;;;3.50;99.90;;;;;;5090193;28;20455;-80
2021/12/19 07:34:39;;;;;;;31.77;21.33;;;3.50;99.90;;;;;;5090404;28;20099;-80
2021/12/19 07:37:05;;;;;;;29.98;20.35;;;3.50;99.90;;;;;;5088161;28;20031;-79
2021/12/19 07:42:05;;;;;;;30.23;19.70;;;3.60;99.90;;;;;;5087799;28;20138;-80
2021/12/19 07:44:31;;;;;;;32.60;21.38;;;3.60;99.90;;;;;;5084868;28;20032;-80
2021/12/19 07:46:57;;;;;;;26.98;19.17;;;3.70;99.90;;;;;;5092518;28;20039;-80
2021/12/19 07:49:22;;;;;;;29.42;18.27;;;3.70;99.90;;;;;;5092902;28;20501;-80
2021/12/19 07:51:48;;;;;;;31.60;19.65;;;3.80;99.90;;;;;;5092106;28;20479;-79
2021/12/19 07:54:14;;;;;;;33.85;21.80;;;3.80;99.90;;;;;;5094205;28;20027;-80
2021/12/19 07:56:39;;;;;;;30.08;20.23;;;3.90;99.90;;;;;;5094463;28;20027;-81
2021/12/19 07:59:06;;;;;;;32.78;21.33;;;4.00;99.90;;;;;;5094250;28;20038;-82
2021/12/19 08:01:32;;;;;;;37.92;22.13;;;4.10;99.90;;;;;;5092781;28;20103;-80
2021/12/19 08:03:58;;;;;;;49.30;28.35;;;4.10;99.90;;;;;;5094175;28;20032;-79
2021/12/19 08:06:24;;;;;;;318.35;126.50;;;4.30;99.90;;;;;;5093923;28;20023;-80
2021/12/19 08:08:53;;;;;;;52.28;27.42;;;4.30;99.90;;;;;;5093991;28;20042;-78
2021/12/19 08:14:06;;;;;;;28.63;17.38;;;4.50;99.90;;;;;;5092136;28;20638;-78
2021/12/19 08:16:32;;;;;;;26.80;17.48;;;4.60;99.90;;;;;;5092276;28;20486;-77
2021/12/19 08:18:58;;;;;;;30.80;17.27;;;4.70;99.90;;;;;;5093473;28;20032;-79
2021/12/19 08:21:23;;;;;;;24.15;15.75;;;4.80;99.90;;;;;;5093638;28;20036;-80
2021/12/19 08:23:49;;;;;;;18.77;14.48;;;4.80;99.90;;;;;;5093792;28;20059;-78
2021/12/19 08:26:15;;;;;;;28.23;14.93;;;4.90;99.90;;;;;;5092754;28;20024;-78
2021/12/19 08:28:41;;;;;;;22.52;15.98;;;5.00;99.90;;;;;;5093280;28;20475;-78
2021/12/19 08:31:07;;;;;;;25.00;15.82;;;5.20;99.90;;;;;;5093304;28;20042;-80
2021/12/19 08:33:33;;;;;;;22.42;14.93;;;5.30;99.90;;;;;;5093729;28;20107;-77
2021/12/19 08:36:01;;;;;;;22.40;15.15;;;5.40;99.90;;;;;;5093114;28;20036;-78
2021/12/19 08:38:27;;;;;;;22.63;14.43;;;5.50;99.90;;;;;;5093441;28;20027;-79
2021/12/19 08:40:53;;;;;;;19.80;13.48;;;5.60;99.90;;;;;;5092767;28;20044;-79
2021/12/19 08:43:20;;;;;;;23.23;15.48;;;5.70;99.90;;;;;;5093456;28;20032;-80
2021/12/19 08:45:46;;;;;;;26.75;14.93;;;5.80;99.90;;;;;;5092751;28;20032;-80
2021/12/19 08:48:12;;;;;;;24.23;14.40;;;5.90;99.90;;;;;;5085772;28;20085;-80
2021/12/19 08:50:38;;;;;;;24.40;14.90;;;5.90;99.90;;;;;;5093209;28;20019;-79
2021/12/19 08:53:04;;;;;;;23.67;15.25;;;6.00;99.90;;;;;;5093377;28;20028;-79
2021/12/19 08:55:30;;;;;;;22.65;15.10;;;6.10;99.90;;;;;;5092626;28;20024;-78
2021/12/19 08:57:55;;;;;;;20.85;14.05;;;6.20;99.90;;;;;;5092197;28;20036;-79
2021/12/19 09:00:22;;;;;;;24.45;15.05;;;6.30;99.90;;;;;;5095312;28;20098;-79
2021/12/19 09:02:51;;;;;;;18.80;13.90;;;6.30;99.90;;;;;;5094918;28;20036;-80
2021/12/19 09:05:18;;;;;;;19.58;14.00;;;6.40;99.90;;;;;;5092285;28;20024;-80
2021/12/19 09:07:44;;;;;;;23.20;16.95;;;6.50;99.90;;;;;;5093197;28;20421;-81
2021/12/19 09:10:10;;;;;;;25.27;16.63;;;6.50;99.90;;;;;;5092371;28;20042;-84
2021/12/19 09:12:36;;;;;;;27.42;16.92;;;6.60;99.90;;;;;;5091786;28;20024;-79
2021/12/19 09:15:04;;;;;;;24.67;16.42;;;6.70;99.90;;;;;;5091497;28;20035;-79
2021/12/19 09:17:30;;;;;;;23.38;15.52;;;6.70;99.90;;;;;;5091223;28;20110;-79
2021/12/19 09:19:56;;;;;;;47.97;31.08;;;6.70;99.90;;;;;;5092807;28;20069;-85
2021/12/19 09:22:21;;;;;;;26.90;18.88;;;6.70;99.90;;;;;;5093144;28;20051;-78
2021/12/19 09:24:47;;;;;;;27.10;18.80;;;6.80;99.90;;;;;;5092515;28;20023;-80
2021/12/19 09:27:13;;;;;;;27.15;19.23;;;6.90;99.90;;;;;;5091007;28;20035;-81
2021/12/19 09:29:39;;;;;;;28.55;21.25;;;7.00;99.90;;;;;;5091334;28;20048;-80
2021/12/19 09:32:05;;;;;;;32.13;21.85;;;7.00;99.90;;;;;;5091294;28;20075;-80
2021/12/19 09:34:31;;;;;;;37.70;22.83;;;7.10;99.90;;;;;;5093235;28;20126;-82
2021/12/19 09:36:57;;;;;;;30.35;20.63;;;7.20;99.90;;;;;;5091817;28;20547;-80
2021/12/19 09:39:25;;;;;;;30.83;20.27;;;7.30;99.90;;;;;;5092770;28;20039;-80
2021/12/19 09:42:08;;;;;;;35.88;22.48;;;7.40;99.90;;;;;;5092128;28;20247;-81
2021/12/19 09:44:35;;;;;;;37.83;27.38;;;7.40;99.90;;;;;;5090368;28;20034;-82
2021/12/19 09:47:01;;;;;;;41.38;27.75;;;7.50;99.90;;;;;;5088047;28;20107;-83
2021/12/19 09:49:27;;;;;;;43.42;27.40;;;7.50;99.90;;;;;;5083898;28;20646;-82
2021/12/19 09:51:54;;;;;;;50.13;29.30;;;7.60;99.90;;;;;;5090248;28;20105;-81
2021/12/19 09:54:20;;;;;;;47.20;30.38;;;7.60;99.90;;;;;;5086978;28;20610;-81
2021/12/19 09:56:46;;;;;;;44.78;29.48;;;7.50;99.90;;;;;;5090799;28;20030;-81
2021/12/19 09:59:17;;;;;;;43.50;30.02;;;7.50;99.90;;;;;;5086063;28;20536;-81
2021/12/19 10:01:43;;;;;;;42.85;29.00;;;7.60;99.90;;;;;;5087681;28;20483;-81
2021/12/19 10:04:28;;;;;;;45.67;31.05;;;7.60;99.90;;;;;;5086230;28;20020;-81
2021/12/19 10:07:25;;;;;;;56.28;33.10;;;7.60;99.90;;;;;;5088231;28;20046;-79
2021/12/19 10:10:02;;;;;;;49.13;31.40;;;7.60;99.90;;;;;;5087592;28;21799;-80
2021/12/19 10:15:09;;;;;;;48.60;29.13;;;7.60;99.90;;;;;;5087959;28;20028;-81
2021/12/19 10:17:37;;;;;;;47.50;31.05;;;7.70;99.90;;;;;;5090336;28;20085;-80
2021/12/19 10:20:06;;;;;;;44.42;27.23;;;7.80;99.90;;;;;;5087929;28;20023;-80
2021/12/19 10:22:32;;;;;;;39.85;27.08;;;7.80;99.90;;;;;;5090170;28;20039;-81
2021/12/19 10:25:10;;;;;;;38.72;25.80;;;7.90;99.90;;;;;;5092140;28;20467;-82
2021/12/19 10:27:41;;;;;;;34.05;21.70;;;7.90;99.90;;;;;;5088689;28;20565;-79
2021/12/19 10:30:12;;;;;;;28.85;22.77;;;7.90;99.90;;;;;;5090982;28;20031;-79
2021/12/19 10:32:54;;;;;;;33.35;21.05;;;8.00;99.90;;;;;;5091466;28;20516;-81
2021/12/19 10:35:47;;;;;;;37.75;22.25;;;8.10;99.90;;;;;;5090464;28;20474;-84
2021/12/19 10:38:29;;;;;;;32.63;21.17;;;8.20;99.90;;;;;;5084730;28;20028;-84
2021/12/19 10:40:58;;;;;;;33.97;22.85;;;8.20;99.90;;;;;;5089345;28;20363;-81
2021/12/19 10:43:28;;;;;;;34.70;23.50;;;8.10;99.90;;;;;;5086782;28;20029;-81
2021/12/19 10:45:58;;;;;;;29.85;22.08;;;8.10;99.90;;;;;;5091856;28;20032;-82
2021/12/19 10:48:31;;;;;;;28.33;21.83;;;8.10;99.90;;;;;;5091439;28;20130;-81
2021/12/19 10:50:59;;;;;;;;;;;8.00;99.90;;;;;;5091049;28;20505;-80
2021/12/19 10:53:32;;;;;;;30.50;22.40;;;8.00;99.90;;;;;;5091782;28;19935;-82
2021/12/19 10:55:58;;;;;;;36.38;22.20;;;8.10;99.90;;;;;;5085509;28;20538;-81
2021/12/19 10:58:26;;;;;;;30.00;22.90;;;8.10;99.90;;;;;;5083574;28;20073;-84
2021/12/19 11:01:14;;;;;;;30.05;22.52;;;8.20;99.90;;;;;;5086586;28;20462;-81
2021/12/19 11:03:44;;;;;;;30.40;22.50;;;8.30;99.90;;;;;;5090940;28;20058;-81
2021/12/19 11:06:22;;;;;;;29.90;21.67;;;8.20;99.90;;;;;;5089927;28;20032;-80
2021/12/19 11:08:50;;;;;;;42.47;25.10;;;8.30;99.90;;;;;;5091014;28;20044;-80
2021/12/19 11:11:39;;;;;;;44.00;26.85;;;8.30;99.90;;;;;;5089483;28;20028;-84
2021/12/19 11:14:06;;;;;;;42.20;28.88;;;8.30;99.90;;;;;;5093403;28;20032;-83
2021/12/19 11:16:32;;;;;;;32.50;25.63;;;8.30;99.90;;;;;;5078504;28;20383;-80
2021/12/19 11:18:58;;;;;;;37.15;24.27;;;8.20;99.90;;;;;;5090364;28;20032;-79
2021/12/19 11:21:23;;;;;;;33.92;22.67;;;8.20;99.90;;;;;;5093376;28;20085;-82
2021/12/19 11:23:49;;;;;;;34.00;25.00;;;8.30;99.90;;;;;;5095435;28;20145;-82
2021/12/19 11:26:19;;;;;;;32.00;24.05;;;8.30;99.90;;;;;;5097614;28;20043;-81
2021/12/19 11:28:47;;;;;;;35.67;23.80;;;8.30;99.90;;;;;;5096710;28;20474;-84
2021/12/19 11:31:13;;;;;;;33.70;24.67;;;8.40;99.90;;;;;;5094451;28;20020;-81
2021/12/19 11:33:53;;;;;;;35.30;24.70;;;8.40;99.90;;;;;;5095670;28;20516;-80
2021/12/19 11:36:20;;;;;;;39.50;27.35;;;8.40;99.90;;;;;;5094914;28;20030;-79
2021/12/19 11:38:47;;;;;;;32.25;23.63;;;8.50;99.90;;;;;;5095634;28;20028;-73
2021/12/19 11:41:13;;;;;;;32.65;23.27;;;8.50;99.90;;;;;;5093078;28;20044;-81
2021/12/19 11:43:40;;;;;;;39.58;26.02;;;8.50;99.90;;;;;;5094720;28;20031;-81
2021/12/19 11:46:16;;;;;;;34.67;25.65;;;8.70;99.90;;;;;;5092316;28;20491;-81
2021/12/19 11:48:42;;;;;;;43.65;27.83;;;8.80;99.90;;;;;;5092451;28;20043;-80
2021/12/19 11:51:17;;;;;;;37.45;26.00;;;8.80;99.90;;;;;;5098331;28;20020;-86
2021/12/19 11:53:43;;;;;;;34.55;24.58;;;8.80;99.90;;;;;;5096289;28;20008;-86
2021/12/19 11:56:09;;;;;;;36.03;25.80;;;8.70;99.90;;;;;;5106101;28;20439;-87
2021/12/19 11:58:50;;;;;;;33.72;25.05;;;8.90;99.90;;;;;;5101896;28;20020;-85
2021/12/19 12:01:32;;;;;;;39.92;28.27;;;9.00;99.90;;;;;;5100242;28;20016;-86
2021/12/19 12:04:01;;;;;;;49.10;33.15;;;9.10;99.90;;;;;;5105839;28;20004;-92
2021/12/19 12:06:38;;;;;;;56.75;35.92;;;9.30;99.90;;;;;;5107940;28;20048;-90
2021/12/19 12:09:07;;;;;;;62.83;40.47;;;9.40;99.90;;;;;;5097169;28;20036;-84
2021/12/19 12:11:35;;;;;;;72.05;42.88;;;9.50;99.90;;;;;;5102991;28;20051;-83
2021/12/19 12:14:21;;;;;;;68.35;42.60;;;9.60;99.90;;;;;;5100379;28;20035;-85
2021/12/19 12:17:06;;;;;;;67.07;44.78;;;9.70;99.90;;;;;;5098406;28;20101;-91
2021/12/19 12:19:42;;;;;;;71.30;42.97;;;8.90;99.90;;;;;;5078668;28;20390;-79
2021/12/19 12:22:34;;;;;;;66.60;42.25;;;8.50;99.90;;;;;;5093521;28;20111;-80
2021/12/19 12:25:19;;;;;;;61.90;38.80;;;8.60;99.90;;;;;;5081019;28;20024;-79
2021/12/19 12:27:44;;;;;;;56.70;34.55;;;8.80;99.90;;;;;;5092146;28;20020;-82
2021/12/19 12:30:31;;;;;;;51.45;34.40;;;9.30;99.90;;;;;;5093829;28;20367;-81
2021/12/19 12:33:01;;;;;;;48.65;32.08;;;10.10;99.90;;;;;;5093119;28;20028;-80
2021/12/19 12:35:35;;;;;;;49.13;32.85;;;10.80;99.90;;;;;;5080972;28;20027;-82
2021/12/19 12:38:02;;;;;;;40.45;30.67;;;11.60;99.90;;;;;;5085993;28;20048;-81
2021/12/19 12:40:45;;;;;;;51.10;31.48;;;12.00;99.90;;;;;;5099469;28;20386;-86
2021/12/19 12:43:32;;;;;;;53.92;31.98;;;12.10;99.90;;;;;;5095602;28;20109;-81
2021/12/19 12:46:13;;;;;;;51.53;32.88;;;11.90;99.90;;;;;;5091941;28;20024;-81
2021/12/19 12:48:54;;;;;;;42.40;30.13;;;11.20;99.90;;;;;;5093855;28;20036;-82
2021/12/19 12:51:30;;;;;;;45.03;29.95;;;11.60;99.90;;;;;;5094868;28;20028;-81
2021/12/19 12:54:02;;;;;;;47.38;29.80;;;12.10;99.90;;;;;;5094867;28;20113;-84
2021/12/19 12:56:34;;;;;;;68.45;44.13;;;12.40;99.90;;;;;;5100062;28;20024;-84
2021/12/19 12:59:00;;;;;;;36.60;26.85;;;12.90;99.90;;;;;;5093508;28;20044;-83
2021/12/19 13:01:30;;;;;;;40.83;27.23;;;13.10;99.90;;;;;;5096336;28;20032;-89
2021/12/19 13:04:25;;;;;;;40.92;28.60;;;13.60;99.90;;;;;;5099941;28;20028;-82
2021/12/19 13:07:05;;;;;;;35.47;25.60;;;13.60;99.90;;;;;;5090790;28;20043;-79
2021/12/19 13:09:41;;;;;;;38.47;25.98;;;13.20;99.90;;;;;;5093325;28;20036;-79
2021/12/19 13:12:16;;;;;;;41.00;27.05;;;13.40;99.90;;;;;;5092106;28;20105;-82
2021/12/19 13:14:57;;;;;;;37.15;27.70;;;13.00;99.90;;;;;;5091146;28;20119;-80
2021/12/19 13:17:32;;;;;;;40.58;29.65;;;12.80;99.90;;;;;;5092334;28;20023;-79
2021/12/19 13:20:13;;;;;;;49.17;33.78;;;11.90;99.90;;;;;;5089572;28;20384;-82
2021/12/19 13:22:40;;;;;;;47.78;32.03;;;10.50;99.90;;;;;;5092327;28;20027;-82
2021/12/19 13:25:16;;;;;;;47.65;32.70;;;9.90;99.90;;;;;;5091170;28;20032;-81
2021/12/19 13:27:48;;;;;;;43.90;30.98;;;9.60;99.90;;;;;;5088908;28;20031;-85
2021/12/19 13:30:15;;;;;;;44.50;32.05;;;9.90;99.90;;;;;;5093968;28;20035;-87
2021/12/19 13:32:47;;;;;;;47.22;31.08;;;10.30;99.90;;;;;;5089628;28;20021;-85
2021/12/19 13:35:25;;;;;;;49.55;31.50;;;10.60;99.90;;;;;;5094241;28;20058;-88
2021/12/19 13:37:52;;;;;;;62.80;40.13;;;11.80;99.90;;;;;;5094391;28;20031;-83
2021/12/19 13:40:19;;;;;;;61.53;34.95;;;11.10;99.90;;;;;;5088207;28;20020;-81
2021/12/19 13:42:49;;;;;;;59.78;36.97;;;9.80;99.90;;;;;;5092146;28;20040;-83
2021/12/19 13:45:30;;;;;;;64.15;38.70;;;9.30;99.90;;;;;;5092204;28;20016;-82
2021/12/19 13:47:59;;;;;;;56.42;36.65;;;8.90;99.90;;;;;;5091766;28;20461;-80
2021/12/19 13:50:26;;;;;;;56.92;37.65;;;8.40;99.90;;;;;;5082929;28;20423;-80
2021/12/19 13:52:52;;;;;;;65.80;40.60;;;8.00;99.90;;;;;;5091812;28;20441;-79
2021/12/19 13:55:19;;;;;;;68.45;40.35;;;7.70;99.90;;;;;;5093015;28;20019;-85
2021/12/19 13:57:45;;;;;;;59.22;40.13;;;7.50;99.90;;;;;;5092739;28;20028;-81
2021/12/19 14:00:32;;;;;;;65.43;45.83;;;7.30;99.90;;;;;;5090289;28;20265;-84
2021/12/19 14:02:58;;;;;;;90.57;55.60;;;7.10;99.90;;;;;;5092815;28;20020;-83
2021/12/19 14:05:40;;;;;;;70.60;46.30;;;7.10;99.90;;;;;;5091848;28;20032;-86